createdAt,value
2022-10-13T00:01:23.163Z,12.33
2022-10-13T00:04:10.478Z,12.20
2022-10-13T00:06:56.124Z,12.37
2022-10-13T00:09:45.535Z,11.73
2022-10-13T00:12:39.883Z,11.46
2022-10-13T00:15:28.168Z,11.85
2022-10-13T00:18:14.783Z,11.98
2022-10-13T00:21:01.281Z,12.30
2022-10-13T00:23:48.096Z,12.34
2022-10-13T00:26:37.973Z,11.84
2022-10-13T00:29:27.931Z,11.14
2022-10-13T00:32:14.322Z,11.81
2022-10-13T00:35:00.694Z,11.45
2022-10-13T00:37:47.209Z,11.24
2022-10-13T00:40:33.258Z,11.49
2022-10-13T00:43:26.970Z,11.67
2022-10-13T00:46:12.624Z,11.12
2022-10-13T00:49:00.111Z,11.84
2022-10-13T00:51:46.686Z,12.04
2022-10-13T00:54:33.816Z,12.13
2022-10-13T00:57:20.989Z,11.95
2022-10-13T01:00:07.849Z,11.96
2022-10-13T01:02:55.840Z,11.71
2022-10-13T01:05:42.312Z,11.63
2022-10-13T01:08:29.167Z,11.53
2022-10-13T01:11:17.392Z,11.77
2022-10-13T01:14:15.875Z,11.79
2022-10-13T01:17:14.495Z,11.95
2022-10-13T01:20:08.077Z,11.53
2022-10-13T01:23:17.520Z,11.64
2022-10-13T01:26:06.698Z,11.71
2022-10-13T01:29:11.110Z,11.61
2022-10-13T01:32:01.086Z,11.83
2022-10-13T01:35:02.833Z,11.82
2022-10-13T01:37:50.113Z,11.80
2022-10-13T01:40:50.175Z,11.79
2022-10-13T01:43:41.003Z,11.81
2022-10-13T01:46:27.853Z,11.64
2022-10-13T01:49:15.172Z,11.66
2022-10-13T01:52:04.027Z,11.18
2022-10-13T01:54:53.432Z,11.71
2022-10-13T01:57:42.002Z,11.68
2022-10-13T02:00:28.087Z,11.54
2022-10-13T02:03:21.802Z,11.69
2022-10-13T02:06:27.345Z,11.55
2022-10-13T02:09:21.839Z,11.70
2022-10-13T02:12:18.940Z,11.80
2022-10-13T02:15:07.349Z,12.01
2022-10-13T02:17:56.937Z,11.89
2022-10-13T02:20:44.572Z,11.78
2022-10-13T02:23:31.203Z,11.53
2022-10-13T02:26:19.181Z,11.38
2022-10-13T02:29:08.646Z,11.58
2022-10-13T02:31:55.503Z,11.43
2022-10-13T02:34:41.528Z,11.76
2022-10-13T02:37:27.378Z,11.81
2022-10-13T02:40:14.087Z,11.75
2022-10-13T02:43:00.665Z,11.41
2022-10-13T02:45:46.557Z,11.00
2022-10-13T02:48:32.902Z,11.13
2022-10-13T02:51:18.848Z,11.12
2022-10-13T02:54:05.083Z,10.87
2022-10-13T02:56:51.238Z,10.47
2022-10-13T02:59:37.449Z,10.91
2022-10-13T03:02:23.675Z,11.33
2022-10-13T03:05:10.840Z,10.97
2022-10-13T03:07:56.985Z,11.21
2022-10-13T03:10:43.627Z,11.55
2022-10-13T03:13:30.259Z,11.51
2022-10-13T03:16:20.985Z,11.39
2022-10-13T03:19:07.849Z,11.04
2022-10-13T03:21:54.041Z,11.14
2022-10-13T03:24:42.326Z,11.33
2022-10-13T03:27:29.990Z,10.67
2022-10-13T03:30:16.571Z,10.46
2022-10-13T03:33:05.008Z,11.05
2022-10-13T03:35:51.060Z,11.22
2022-10-13T03:38:39.042Z,11.15
2022-10-13T03:41:27.917Z,10.69
2022-10-13T03:44:14.623Z,10.84
2022-10-13T03:47:00.369Z,10.83
2022-10-13T03:49:47.351Z,10.84
2022-10-13T03:52:33.448Z,10.49
2022-10-13T03:55:20.542Z,9.98
2022-10-13T03:58:07.897Z,9.33
2022-10-13T04:00:56.163Z,10.29
2022-10-13T04:03:44.061Z,10.63
2022-10-13T04:06:30.981Z,10.83
2022-10-13T04:09:17.974Z,10.78
2022-10-13T04:12:04.693Z,10.74
2022-10-13T04:14:52.707Z,10.92
2022-10-13T04:17:39.266Z,10.71
2022-10-13T04:20:26.541Z,10.34
2022-10-13T04:23:15.006Z,10.27
2022-10-13T04:26:07.216Z,10.63
2022-10-13T04:28:53.936Z,10.84
2022-10-13T04:31:48.090Z,10.70
2022-10-13T04:34:35.640Z,10.63
2022-10-13T04:37:26.283Z,10.95
2022-10-13T04:40:15.499Z,10.88
2022-10-13T04:43:02.535Z,10.85
2022-10-13T04:45:48.677Z,10.51
2022-10-13T04:48:36.344Z,10.61
2022-10-13T04:51:23.789Z,10.85
2022-10-13T04:54:11.980Z,10.91
2022-10-13T04:57:00.068Z,10.74
2022-10-13T04:59:47.812Z,10.70
2022-10-13T05:02:37.604Z,10.74
2022-10-13T05:05:23.989Z,10.47
2022-10-13T05:08:11.053Z,10.57
2022-10-13T05:11:06.065Z,10.66
2022-10-13T05:13:55.234Z,10.60
2022-10-13T05:16:45.203Z,10.16
2022-10-13T05:19:34.208Z,10.61
2022-10-13T05:22:21.528Z,10.88
2022-10-13T05:25:09.538Z,10.79
2022-10-13T05:27:55.756Z,10.64
2022-10-13T05:30:42.770Z,10.27
2022-10-13T05:33:29.126Z,9.67
2022-10-13T05:36:19.323Z,9.58
2022-10-13T05:39:14.106Z,9.76
2022-10-13T05:42:01.407Z,10.09
2022-10-13T05:44:49.404Z,10.14
2022-10-13T05:47:36.282Z,9.87
2022-10-13T05:50:24.282Z,10.21
2022-10-13T05:53:10.166Z,9.61
2022-10-13T05:55:58.414Z,10.53
2022-10-13T05:58:50.480Z,10.82
2022-10-13T06:01:41.751Z,10.90
2022-10-13T06:04:32.238Z,10.69
2022-10-13T06:07:18.504Z,10.51
2022-10-13T06:10:10.126Z,10.79
2022-10-13T06:13:01.784Z,10.70
2022-10-13T06:15:48.837Z,10.70
2022-10-13T06:18:36.234Z,11.12
2022-10-13T06:21:24.706Z,11.24
2022-10-13T06:24:14.546Z,10.95
2022-10-13T06:27:01.194Z,10.14
2022-10-13T06:29:47.848Z,10.37
2022-10-13T06:32:34.784Z,10.74
2022-10-13T06:35:25.926Z,11.21
2022-10-13T06:38:13.030Z,9.76
2022-10-13T06:41:04.086Z,11.06
2022-10-13T06:43:52.699Z,10.87
2022-10-13T06:46:40.443Z,11.44
2022-10-13T06:49:28.040Z,11.69
2022-10-13T06:52:15.377Z,11.88
2022-10-13T06:55:02.175Z,11.77
2022-10-13T06:57:48.660Z,12.14
2022-10-13T07:00:44.146Z,11.96
2022-10-13T07:03:32.143Z,12.08
2022-10-13T07:06:25.069Z,12.32
2022-10-13T07:09:13.228Z,11.79
2022-10-13T07:12:00.105Z,11.31
2022-10-13T07:14:46.736Z,11.80
2022-10-13T07:17:33.706Z,12.55
2022-10-13T07:20:21.440Z,12.93
2022-10-13T07:23:17.512Z,13.09
2022-10-13T07:26:09.104Z,12.89
2022-10-13T07:28:55.110Z,13.27
2022-10-13T07:31:48.418Z,13.66
2022-10-13T07:34:35.166Z,13.68
2022-10-13T07:37:22.834Z,13.03
2022-10-13T07:40:10.062Z,13.63
2022-10-13T07:42:58.267Z,13.72
2022-10-13T07:45:46.620Z,13.86
2022-10-13T07:48:34.028Z,13.95
2022-10-13T07:51:21.780Z,13.33
2022-10-13T07:54:12.079Z,14.04
2022-10-13T07:56:59.132Z,14.40
2022-10-13T07:59:46.079Z,13.79
2022-10-13T08:02:37.146Z,13.90
2022-10-13T08:05:28.115Z,14.17
2022-10-13T08:08:17.271Z,13.63
2022-10-13T08:11:05.125Z,14.64
2022-10-13T08:13:54.003Z,14.84
2022-10-13T08:16:48.644Z,15.37
2022-10-13T08:19:39.064Z,15.08
2022-10-13T08:22:28.397Z,14.43
2022-10-13T08:25:24.084Z,15.46
2022-10-13T08:28:17.984Z,15.59
2022-10-13T08:31:11.034Z,15.89
2022-10-13T08:33:57.063Z,16.50
2022-10-13T08:36:45.251Z,16.06
2022-10-13T08:39:32.475Z,15.83
2022-10-13T08:42:23.010Z,15.66
2022-10-13T08:45:42.273Z,16.29
2022-10-13T08:48:21.493Z,16.00
2022-10-13T08:51:08.197Z,15.73
2022-10-13T08:53:57.106Z,16.04
2022-10-13T08:56:46.549Z,15.68
2022-10-13T08:59:33.975Z,16.63
2022-10-13T09:02:27.276Z,16.54
2022-10-13T09:05:36.206Z,16.67
2022-10-13T09:11:15.905Z,16.55
2022-10-13T09:14:04.206Z,16.25
2022-10-13T09:16:57.923Z,16.67
2022-10-13T09:19:59.057Z,16.64
2022-10-13T09:23:06.014Z,16.61
2022-10-13T09:25:52.675Z,16.99
2022-10-13T09:28:38.491Z,17.08
2022-10-13T09:31:27.391Z,16.81
2022-10-13T09:34:15.382Z,17.01
2022-10-13T09:37:05.788Z,17.77
2022-10-13T09:40:16.075Z,17.62
2022-10-13T09:43:03.623Z,16.93
2022-10-13T09:45:49.641Z,17.51
2022-10-13T09:48:38.659Z,17.72
2022-10-13T09:51:33.058Z,17.98
2022-10-13T09:54:36.430Z,18.65
2022-10-13T09:57:28.774Z,17.80
2022-10-13T10:00:23.642Z,19.11
2022-10-13T10:03:19.705Z,19.12
2022-10-13T10:06:07.673Z,19.34
2022-10-13T10:09:03.368Z,19.71
2022-10-13T10:11:56.451Z,20.32
2022-10-13T10:14:43.107Z,20.61
2022-10-13T10:17:43.981Z,20.36
2022-10-13T10:20:35.294Z,21.54
2022-10-13T10:23:37.378Z,21.08
2022-10-13T10:26:32.685Z,21.56
2022-10-13T10:29:26.478Z,21.02
2022-10-13T10:32:26.436Z,21.55
2022-10-13T10:35:18.372Z,21.44
2022-10-13T10:38:21.079Z,22.34
2022-10-13T10:41:14.026Z,20.94
2022-10-13T10:44:11.236Z,21.31
2022-10-13T10:47:06.093Z,22.00
2022-10-13T10:49:56.976Z,23.26
2022-10-13T10:53:03.006Z,23.74
2022-10-13T10:55:51.070Z,22.89
2022-10-13T10:58:50.058Z,22.04
2022-10-13T11:01:59.063Z,21.60
2022-10-13T11:04:49.135Z,21.63
2022-10-13T11:07:40.526Z,21.78
2022-10-13T11:10:28.102Z,21.64
2022-10-13T11:13:16.698Z,21.36
2022-10-13T11:16:20.160Z,19.51
2022-10-13T11:19:26.302Z,19.87
2022-10-13T11:22:15.466Z,20.52
2022-10-13T11:25:10.253Z,20.55
2022-10-13T11:28:00.090Z,20.97
2022-10-13T11:30:55.117Z,20.44
2022-10-13T11:33:42.069Z,20.97
2022-10-13T11:36:31.059Z,20.20
2022-10-13T11:39:28.336Z,19.92
2022-10-13T11:42:17.177Z,20.71
2022-10-13T11:45:23.405Z,20.75
2022-10-13T11:48:46.086Z,20.34
2022-10-13T11:52:39.167Z,20.64
2022-10-13T11:55:28.920Z,20.62
2022-10-13T11:58:16.624Z,19.75
2022-10-13T12:01:07.097Z,19.89
2022-10-13T12:03:57.531Z,20.21
2022-10-13T12:06:56.110Z,20.60
2022-10-13T12:12:32.057Z,20.70
2022-10-13T12:15:29.283Z,20.89
2022-10-13T12:18:25.363Z,21.16
2022-10-13T12:21:14.303Z,20.87
2022-10-13T12:24:10.028Z,21.00
2022-10-13T12:26:59.759Z,21.36
2022-10-13T12:29:54.308Z,20.88
2022-10-13T12:32:55.139Z,20.99
2022-10-13T12:35:44.220Z,20.54
2022-10-13T12:38:35.100Z,20.82
2022-10-13T12:41:27.150Z,21.19
2022-10-13T12:44:26.490Z,21.34
2022-10-13T12:47:34.406Z,21.53
2022-10-13T12:50:30.220Z,21.95
2022-10-13T12:53:23.063Z,21.89
2022-10-13T12:56:27.909Z,22.25
2022-10-13T12:59:24.127Z,21.07
2022-10-13T13:02:26.142Z,22.00
2022-10-13T13:05:31.304Z,22.42
2022-10-13T13:08:29.833Z,23.11
2022-10-13T13:11:39.344Z,23.70
2022-10-13T13:14:39.082Z,23.97
2022-10-13T13:17:45.817Z,23.37
2022-10-13T13:20:38.000Z,23.37
2022-10-13T13:23:29.129Z,23.05
2022-10-13T13:26:23.122Z,24.02
2022-10-13T13:29:11.498Z,21.01
2022-10-13T13:31:58.912Z,23.46
2022-10-13T13:34:48.119Z,24.30
2022-10-13T13:37:45.447Z,25.04
2022-10-13T13:40:32.734Z,25.57
2022-10-13T13:43:21.599Z,25.34
2022-10-13T13:46:21.331Z,25.62
2022-10-13T13:49:10.103Z,25.64
2022-10-13T13:52:02.104Z,25.65
2022-10-13T13:54:50.953Z,25.91
2022-10-13T13:57:41.065Z,26.58
2022-10-13T14:00:31.118Z,26.84
2022-10-13T14:03:19.633Z,26.90
2022-10-13T14:06:07.168Z,27.36
2022-10-13T14:09:12.004Z,24.81
2022-10-13T14:12:01.121Z,23.86
2022-10-13T14:14:49.302Z,23.06
2022-10-13T14:17:40.077Z,24.45
2022-10-13T14:23:24.401Z,25.55
2022-10-13T14:26:16.111Z,26.04
2022-10-13T14:29:13.156Z,26.35
2022-10-13T14:32:05.329Z,26.10
2022-10-13T14:34:53.100Z,26.35
2022-10-13T14:37:41.338Z,26.87
2022-10-13T14:40:30.403Z,27.06
2022-10-13T14:43:29.124Z,26.64
2022-10-13T14:46:24.132Z,26.81
2022-10-13T14:49:11.812Z,26.62
2022-10-13T14:52:05.132Z,27.09
2022-10-13T14:54:55.770Z,27.04
2022-10-13T14:57:43.929Z,27.11
2022-10-13T15:00:40.152Z,27.08
2022-10-13T15:03:46.237Z,26.84
2022-10-13T15:06:34.062Z,26.79
2022-10-13T15:09:38.968Z,26.64
2022-10-13T15:12:39.096Z,26.53
2022-10-13T15:15:25.773Z,26.36
2022-10-13T15:18:19.099Z,26.29
2022-10-13T15:21:16.159Z,26.08
2022-10-13T15:24:12.355Z,25.65
2022-10-13T15:27:14.137Z,25.52
2022-10-13T15:30:08.965Z,25.28
2022-10-13T15:32:58.153Z,24.97
2022-10-13T15:35:50.371Z,24.43
2022-10-13T15:38:40.470Z,23.98
2022-10-13T15:41:45.456Z,23.57
2022-10-13T15:44:51.151Z,23.15
2022-10-13T15:47:49.355Z,22.99
2022-10-13T15:50:42.334Z,22.63
2022-10-13T15:53:39.145Z,21.99
2022-10-13T15:56:27.352Z,21.66
2022-10-13T15:59:20.145Z,21.39
2022-10-13T16:02:11.356Z,21.16
2022-10-13T16:04:58.322Z,20.95
2022-10-13T16:07:48.297Z,20.46
2022-10-13T16:10:42.052Z,20.30
2022-10-13T16:13:29.872Z,20.26
2022-10-13T16:16:18.403Z,20.17
2022-10-13T16:19:09.522Z,19.84
2022-10-13T16:22:07.266Z,19.70
2022-10-13T16:25:01.688Z,19.41
2022-10-13T16:27:59.155Z,19.04
2022-10-13T16:30:51.327Z,18.98
2022-10-13T16:33:44.003Z,18.96
2022-10-13T16:36:37.276Z,18.72
2022-10-13T16:39:28.058Z,18.67
2022-10-13T16:42:16.441Z,17.24
2022-10-13T16:45:07.194Z,16.75
2022-10-13T16:47:56.196Z,17.03
2022-10-13T16:50:52.094Z,17.55
2022-10-13T16:53:48.119Z,17.58
2022-10-13T16:56:37.248Z,17.45
2022-10-13T16:59:34.866Z,17.47
2022-10-13T17:02:29.124Z,17.29
2022-10-13T17:05:27.648Z,17.40
2022-10-13T17:08:21.223Z,17.44
2022-10-13T17:11:26.410Z,17.30
2022-10-13T17:14:13.581Z,17.17
2022-10-13T17:17:04.484Z,16.99
2022-10-13T17:20:05.411Z,16.80
2022-10-13T17:25:48.144Z,16.48
2022-10-13T17:28:40.158Z,16.43
2022-10-13T17:31:29.367Z,16.36
2022-10-13T17:34:24.115Z,16.17
2022-10-13T17:37:13.189Z,16.13
2022-10-13T17:40:04.616Z,16.09
2022-10-13T17:42:55.133Z,15.90
2022-10-13T17:45:45.131Z,15.74
2022-10-13T17:48:38.501Z,15.72
2022-10-13T17:51:29.351Z,15.62
2022-10-13T17:54:21.894Z,15.45
2022-10-13T17:57:24.379Z,15.46
2022-10-13T18:00:22.106Z,15.27
2022-10-13T18:03:13.157Z,15.15
2022-10-13T18:06:10.082Z,14.74
2022-10-13T18:09:02.439Z,14.72
2022-10-13T18:11:52.309Z,14.84
2022-10-13T18:17:44.179Z,15.09
2022-10-13T18:20:33.338Z,15.03
2022-10-13T18:23:29.282Z,15.05
2022-10-13T18:26:20.162Z,14.82
2022-10-13T18:29:12.998Z,14.72
2022-10-13T18:32:08.403Z,14.78
2022-10-13T18:35:10.303Z,14.80
2022-10-13T18:38:00.070Z,14.85
2022-10-13T18:40:57.306Z,14.75
2022-10-13T18:43:50.137Z,15.05
2022-10-13T18:46:52.461Z,14.93
2022-10-13T18:49:56.087Z,14.83
2022-10-13T18:52:43.520Z,14.68
2022-10-13T18:58:58.402Z,14.45
2022-10-13T19:01:52.393Z,14.25
2022-10-13T19:04:49.305Z,14.24
2022-10-13T19:07:39.186Z,14.14
2022-10-13T19:10:26.113Z,14.18
2022-10-13T19:13:14.596Z,14.09
2022-10-13T19:16:08.383Z,13.99
2022-10-13T19:18:58.465Z,14.08
2022-10-13T19:21:47.462Z,14.07
2022-10-13T19:24:38.385Z,14.00
2022-10-13T19:27:26.159Z,13.95
2022-10-13T19:30:16.101Z,13.68
2022-10-13T19:33:19.814Z,13.57
2022-10-13T19:36:25.398Z,13.45
2022-10-13T19:39:20.173Z,13.51
2022-10-13T19:42:08.126Z,13.65
2022-10-13T19:44:58.642Z,13.59
2022-10-13T19:47:57.213Z,13.34
2022-10-13T19:50:48.120Z,13.53
2022-10-13T19:53:38.132Z,13.35
2022-10-13T19:56:34.049Z,13.37
2022-10-13T19:59:29.925Z,13.11
2022-10-13T20:02:17.535Z,13.17
2022-10-13T20:05:11.121Z,13.21
2022-10-13T20:07:58.384Z,13.32
2022-10-13T20:10:51.484Z,13.18
2022-10-13T20:13:47.150Z,12.87
2022-10-13T20:16:38.122Z,12.66
2022-10-13T20:19:26.697Z,12.40
2022-10-13T20:22:14.152Z,12.78
2022-10-13T20:25:06.245Z,13.00
2022-10-13T20:27:59.091Z,12.14
2022-10-13T20:30:51.102Z,12.53
2022-10-13T20:33:46.095Z,12.90
2022-10-13T20:36:39.137Z,12.92
2022-10-13T20:39:28.141Z,12.83
2022-10-13T20:42:15.324Z,12.60
2022-10-13T20:45:02.316Z,12.49
2022-10-13T20:47:56.197Z,12.43
2022-10-13T20:50:43.274Z,12.37
2022-10-13T20:59:24.072Z,12.22
2022-10-13T21:02:13.530Z,12.39
2022-10-13T21:05:00.038Z,12.48
2022-10-13T21:07:55.604Z,12.12
2022-10-13T21:10:53.147Z,12.17
2022-10-13T21:13:46.106Z,12.33
2022-10-13T21:16:33.126Z,12.13
2022-10-13T21:19:20.489Z,12.21
2022-10-13T21:22:07.709Z,12.29
2022-10-13T21:24:54.774Z,12.44
2022-10-13T21:27:44.174Z,12.38
2022-10-13T21:30:31.248Z,12.26
2022-10-13T21:33:17.471Z,12.15
2022-10-13T21:36:07.735Z,12.03
2022-10-13T21:38:56.250Z,12.09
2022-10-13T21:41:45.372Z,11.93
2022-10-13T21:44:36.115Z,12.12
2022-10-13T21:47:24.238Z,11.88
2022-10-13T21:50:11.835Z,11.88
2022-10-13T21:52:57.974Z,11.70
2022-10-13T21:55:47.739Z,11.93
2022-10-13T21:58:35.482Z,11.90
2022-10-13T22:01:30.860Z,11.89
2022-10-13T22:04:14.565Z,12.57
2022-10-13T22:06:54.725Z,12.14
2022-10-13T22:09:32.916Z,12.52
2022-10-13T22:12:13.707Z,12.47
2022-10-13T22:15:11.649Z,12.47
2022-10-13T22:17:49.631Z,12.22
2022-10-13T22:20:27.881Z,11.86
2022-10-13T22:23:05.145Z,11.90
2022-10-13T22:25:44.975Z,12.14
2022-10-13T22:28:22.727Z,12.41
2022-10-13T22:31:03.693Z,12.02
2022-10-13T22:33:42.141Z,12.26
2022-10-13T22:36:23.762Z,11.86
2022-10-13T22:39:02.906Z,12.37
2022-10-13T22:41:40.412Z,11.91
2022-10-13T22:44:17.521Z,11.68
2022-10-13T22:46:54.642Z,12.26
2022-10-13T22:49:33.313Z,12.27
2022-10-13T22:52:12.648Z,12.33
2022-10-13T22:54:50.623Z,12.29
2022-10-13T22:57:27.689Z,11.91
2022-10-13T23:00:06.786Z,12.16
2022-10-13T23:02:44.944Z,11.73
2022-10-13T23:05:22.155Z,11.65
2022-10-13T23:08:00.845Z,12.21
2022-10-13T23:10:39.396Z,11.82
2022-10-13T23:13:18.111Z,11.87
2022-10-13T23:16:04.250Z,11.35
2022-10-13T23:18:45.121Z,11.25
2022-10-13T23:21:27.281Z,11.08
2022-10-13T23:24:06.460Z,11.75
2022-10-13T23:26:44.288Z,11.38
2022-10-13T23:29:22.837Z,11.57
2022-10-13T23:32:06.257Z,11.82
2022-10-13T23:34:48.101Z,11.44
2022-10-13T23:37:26.830Z,11.32
2022-10-13T23:40:07.148Z,11.85
2022-10-13T23:42:45.935Z,11.81
2022-10-13T23:45:24.491Z,11.35
2022-10-13T23:48:03.098Z,11.00
2022-10-13T23:50:42.523Z,10.67
2022-10-13T23:53:21.457Z,11.71
2022-10-13T23:56:00.812Z,11.34
2022-10-13T23:58:41.105Z,11.01
